Wetterdaten: aktuell Mittwoch, 27.09.2023 23:20
Datum Zeit Temperatur Temp. +5 cm Temp. -10 cm Feuchte A. Luftdruck Regen Wind Richtung Richtung Zeit Sonne UV-I Solarstrahlg Taupunkt Windchill Windben
27.09.2023 23:20 14,9 C 11,7 C 16,7 C 89 % 1017,4 hPa 0,0 l/m 0,0 km/h (0 Bft) S 183 0 min 0,0 UV-I 0 W/m 13,1 C 14,9 C 0,0 km/h (0 Bft)
27.09.2023 22:20 15,7 C 12,8 C 16,7 C 88 % 1017,8 hPa 0,0 l/m 0,0 km/h (0 Bft) S 183 0 min 0,0 UV-I 0 W/m 13,7 C 15,7 C 0,0 km/h (0 Bft)
27.09.2023 21:22 17,1 C 14,4 C 17,2 C 87 % 1017,9 hPa 0,0 l/m 0,0 km/h (0 Bft) S 183 0 min 0,0 UV-I 0 W/m 14,9 C 17,1 C 0,0 km/h (0 Bft)
27.09.2023 20:24 18,3 C 15,6 C 17,2 C 86 % 1018,0 hPa 0,0 l/m 1,5 km/h (1 Bft) S 183 0 min 0,0 UV-I 0 W/m 15,9 C 18,3 C 3,2 km/h (1 Bft)
27.09.2023 19:26 19,9 C 17,2 C 17,2 C 81 % 1018,5 hPa 0,0 l/m 0,4 km/h (0 Bft) S 183 20 min 0,0 UV-I 0 W/m 16,5 C 19,9 C 1,6 km/h (1 Bft)
27.09.2023 18:28 23,2 C 21,7 C 17,8 C 70 % 1018,7 hPa 0,0 l/m 1,0 km/h (0 Bft) S 183 30 min 0,0 UV-I 42 W/m 17,4 C 23,2 C 1,6 km/h (1 Bft)
27.09.2023 17:30 25,1 C 24,4 C 17,8 C 66 % 1018,8 hPa 0,0 l/m 2,2 km/h (1 Bft) S 186 24 min 0,0 UV-I 77 W/m 18,3 C 25,1 C 3,2 km/h (1 Bft)
27.09.2023 16:32 26,3 C 31,7 C 17,2 C 61 % 1019,0 hPa 0,0 l/m 3,8 km/h (1 Bft) S-SW 202 56 min 0,6 UV-I 197 W/m 18,2 C 26,3 C 6,4 km/h (2 Bft)
27.09.2023 15:34 26,7 C 36,7 C 17,2 C 60 % 1019,6 hPa 0,0 l/m 4,9 km/h (1 Bft) W 266 48 min 1,6 UV-I 522 W/m 18,3 C 26,7 C 8,0 km/h (2 Bft)
27.09.2023 14:36 26,6 C 32,8 C 16,7 C 58 % 1020,1 hPa 0,0 l/m 4,7 km/h (1 Bft) S-SW 202 60 min 1,9 UV-I 483 W/m 17,6 C 26,6 C 8,0 km/h (2 Bft)
27.09.2023 13:38 26,0 C 37,2 C 16,7 C 61 % 1020,7 hPa 0,0 l/m 9,7 km/h (2 Bft) S 173 58 min 2,5 UV-I 580 W/m 17,9 C 26,0 C 16,1 km/h (3 Bft)
27.09.2023 12:40 25,2 C 31,7 C 16,1 C 62 % 1021,3 hPa 0,0 l/m 8,0 km/h (2 Bft) SW 229 60 min 2,6 UV-I 571 W/m 17,4 C 25,2 C 12,9 km/h (3 Bft)
27.09.2023 11:42 23,6 C 32,8 C 15,6 C 66 % 1021,9 hPa 0,0 l/m 7,2 km/h (2 Bft) S-SW 202 60 min 2,2 UV-I 527 W/m 16,9 C 23,6 C 12,9 km/h (3 Bft)
27.09.2023 10:44 19,8 C 18,3 C 15,0 C 77 % 1022,6 hPa 0,0 l/m 3,0 km/h (1 Bft) S 169 60 min 1,6 UV-I 448 W/m 15,6 C 19,8 C 4,8 km/h (1 Bft)
27.09.2023 09:46 14,8 C 14,4 C 15,0 C 91 % 1022,7 hPa 0,0 l/m 0,0 km/h (0 Bft) S 177 26 min 1,0 UV-I 332 W/m 13,3 C 14,8 C 0,0 km/h (0 Bft)
27.09.2023 08:48 11,7 C 11,7 C 15,0 C 91 % 1023,0 hPa 0,0 l/m 0,1 km/h (0 Bft) S 184 8 min 0,5 UV-I 125 W/m 10,3 C 11,7 C 1,6 km/h (1 Bft)
27.09.2023 07:50 10,1 C 8,9 C 15,0 C 91 % 1023,0 hPa 0,0 l/m 0,8 km/h (0 Bft) S 186 12 min 0,0 UV-I 42 W/m 8,7 C 10,1 C 3,2 km/h (1 Bft)
27.09.2023 06:52 10,1 C 7,2 C 15,0 C 91 % 1022,0 hPa 0,0 l/m 0,0 km/h (0 Bft) S 181 0 min 0,0 UV-I 9 W/m 8,7 C 10,1 C 0,0 km/h (0 Bft)
27.09.2023 05:54 10,4 C 8,9 C 15,0 C 91 % 1021,5 hPa 0,0 l/m 2,6 km/h (1 Bft) S 177 0 min 0,0 UV-I 0 W/m 9,0 C 10,4 C 4,8 km/h (1 Bft)
27.09.2023 04:56 10,1 C 7,2 C 15,6 C 90 % 1021,5 hPa 0,0 l/m 1,9 km/h (1 Bft) S 169 0 min 0,0 UV-I 0 W/m 8,5 C 10,1 C 3,2 km/h (1 Bft)
27.09.2023 03:58 10,4 C 7,2 C 15,6 C 90 % 1021,5 hPa 0,0 l/m 0,0 km/h (0 Bft) S-SO 162 0 min 0,0 UV-I 0 W/m 8,8 C 10,4 C 0,0 km/h (0 Bft)
27.09.2023 03:00 10,8 C 7,8 C 15,6 C 90 % 1021,4 hPa 0,0 l/m 0,0 km/h (0 Bft) S 176 0 min 0,0 UV-I 0 W/m 9,2 C 10,8 C 0,0 km/h (0 Bft)
27.09.2023 02:02 11,4 C 8,3 C 16,1 C 90 % 1021,6 hPa 0,0 l/m 3,9 km/h (1 Bft) S 177 0 min 0,0 UV-I 0 W/m 9,8 C 11,4 C 6,4 km/h (2 Bft)
27.09.2023 01:04 11,9 C 8,9 C 16,1 C 89 % 1021,5 hPa 0,0 l/m 0,0 km/h (0 Bft) S-SO 159 0 min 0,0 UV-I 0 W/m 10,1 C 11,9 C 0,0 km/h (0 Bft)
27.09.2023 00:06 12,5 C 9,4 C 16,1 C 89 % 1021,5 hPa 0,0 l/m 0,0 km/h (0 Bft) S-SO 159 0 min 0,0 UV-I 0 W/m 10,7 C 12,5 C 0,0 km/h (0 Bft)
27.09.2023 00:00 12,6 C 9,4 C 16,1 C 89 % 1021,4 hPa 0,0 l/m 0,0 km/h (0 Bft) S-SO 159 0 min 0,0 UV-I 0 W/m 10,8 C 12,6 C 0,0 km/h (0 Bft)
_ Min-Zeit 07:32 07:16 11:40 14:50 23:20 - 23:20 - - - - - 07:32 07:32 23:20
Minimum _ 9,8 C 6,7 C 15,0 C 57 % 1017,4 hPa - 0,0 km/h (0 Bft) - - - - - 8,4 C 9,8 C 0,0 km/h (0 Bft)
_ Max-Zeit 15:42 13:28 20:00 09:18 08:08 23:20 13:58 - - 16:03 13:26 13:26 15:58 15:42 13:42
Maximum _ 27,5 C 38,3 C 17,8 C 92 % 1023,2 hPa 0,0 l/m 10,5 km/h
S (2 Bft)
- - 3 min 2,6 UV-I 591 W/m 18,7 C 27,5 C 17,7 km/h
SO (3 Bft)
Durchschnitt _ 17,4 C 17,7 C 16,2 C 80 % 1020,6 hPa #0,0 l/m 1,6 km/h (1 Bft) S - #8:24 h 1,6 UV-I 289 W/m 13,6 C 17,4 C 3,5 km/h (1 Bft)